Santos Dumont Airport

SBRJ · Rio de Janeiro, 巴西

罗盘
风向 的 风向 040° Santos Dumont Airport 2R/20L
风: 6 kt, 2 beaufort

4 kt

4 kt
改变
0 ft 1.000 2.000 3.000 4.000 5.000
Cloud Cloud Cloud Cloud
SCT 3.300
METAR SBGL 011100Z 04006KT 7000 SCT033 28/24 Q1010

METAR Santos Dumont Airport - SBRJ/SDU

Santos Dumont Airport是,巴西中的中型机场。 该机场位于纬度-22,91044和经度-43,16320。 该机场有2条跑道: 2R/20L 和 2L/20R. 本场的ICAO机场代码为SBRJ。 该机场的IATA代码为SDU。 机场在Curitiba FIR中。

该航空气象观测是针对Rio Galeão – Tom Jobim International Airport在2024年3月1日 08:00, 当地时间进行的。

机场观察

风向为040°,速度为6 kt。

可见度为7 km。

有疏云,零星散落的云朵在3.300 ft的高度。 没有观察到天花板。

温度和风寒是28 °C。 热指数为32。 露点为24 °C,相对湿度为79%。 海平面上的气压为1010 hPa (QNH)。

白天

今天,太阳从05:48升起,在18:20降落。 这适用于Santos Dumont Airport,世界夏令时可能有所不同。 当地时间与世界标准时间之间的时差为-3 小时。 当前,没有夏令时有效。

公司介绍

我们没有关于这个机场的公司信息。

体会

到Vliegles.nl去找飞行课程,跳伞和其他飞行体验。 浏览页面,了解Santos Dumont Airport附近所有可用的活动。 你也可以使用搜索功能来寻找你所在地附近的特定飞行课程、跳伞或其他飞行体验。

跑道

Id 标题 侧风 逆风 侧风 %
2R/20L 357°-177° 4 kt 4 kt 68 %
2L/20R 357°-177° 4 kt 4 kt 68 %

逆风成分最大的方向会被突出显示,并用于横风计算。 这并不一定意味着这个方向在使用。

乌云

3.300 ft SCT 疏云,零星散落的云朵

温度 & 天气

温度 28 °C
露点 24 °C
相对湿度 79%
热度指数 32 °C
Kp-index 1 (0-9)

白天

日出
05:49
中午
12:05
日落
18:21 (9:37)

小工具

你想在你的网站上有一个关于Santos Dumont Airport的当前航空天气(METAR)的小部件吗?

显示HTML代码
?>